Time;durP1;ratioP1;P1;durP2;ratioP2;P2;SDS_P1;SDS_P2;PMS_P1;PMS_P2;Temp;Humidity;BMP_temperature;BMP_pressure;BME280_temperature;BME280_humidity;BME280_pressure;Samples;Min_cycle;Max_cycle;Signal;HPM_P1;HPM_P2
2023/04/03 00:01:54;;;;;;;3.30;3.00;;;;;;;;;;4979147;28;20521;-76
2023/04/03 00:04:21;;;;;;;6.15;2.75;;;;;;;;;;4978859;28;20054;-75
2023/04/03 00:06:51;;;;;;;4.13;2.58;;;;;;;;;;4962499;28;20111;-75
2023/04/03 00:09:18;;;;;;;3.45;2.42;;;;;;;;;;4978504;28;20076;-75
2023/04/03 00:11:45;;;;;;;5.30;3.22;;;;;;;;;;4961547;28;20042;-76
2023/04/03 00:14:12;;;;;;;3.53;2.58;;;;;;;;;;4962767;28;20065;-76
2023/04/03 00:16:38;;;;;;;4.78;2.97;;;;;;;;;;4962443;28;20426;-75
2023/04/03 00:19:05;;;;;;;3.58;2.40;;;;;;;;;;4962563;28;20259;-74
2023/04/03 00:21:32;;;;;;;5.32;2.78;;;;;;;;;;4961903;28;20050;-75
2023/04/03 00:23:59;;;;;;;3.53;2.53;;;;;;;;;;4961646;28;20445;-71
2023/04/03 00:26:26;;;;;;;3.03;2.60;;;;;;;;;;4943100;28;20058;-71
2023/04/03 00:28:53;;;;;;;6.75;2.60;;;;;;;;;;4958574;28;20046;-76
2023/04/03 00:31:20;;;;;;;3.08;2.33;;;;;;;;;;4942804;28;20056;-75
2023/04/03 00:33:47;;;;;;;4.78;2.75;;;;;;;;;;4958491;28;20474;-75
2023/04/03 00:36:13;;;;;;;4.18;2.58;;;;;;;;;;4942980;28;20057;-76
2023/04/03 00:38:40;;;;;;;3.53;2.17;;;;;;;;;;4947755;28;20042;-76
2023/04/03 00:41:07;;;;;;;6.45;2.88;;;;;;;;;;4958385;28;20050;-75
2023/04/03 00:43:34;;;;;;;3.00;2.70;;;;;;;;;;4958857;28;20054;-75
2023/04/03 00:46:01;;;;;;;5.03;2.65;;;;;;;;;;4959393;28;20080;-75
2023/04/03 00:48:36;;;;;;;4.50;2.30;;;;;;;;;;4974975;28;20054;-74
2023/04/03 00:51:04;;;;;;;4.90;2.75;;;;;;;;;;4958902;28;20050;-75
2023/04/03 00:53:39;;;;;;;5.57;2.67;;;;;;;;;;4958067;28;20042;-74
2023/04/03 00:56:08;;;;;;;3.38;2.78;;;;;;;;;;4960519;28;20062;-74
2023/04/03 00:58:42;;;;;;;3.97;2.60;;;;;;;;;;4958697;28;20470;-74
2023/04/03 01:01:11;;;;;;;2.92;2.55;;;;;;;;;;4942500;28;20411;-74
2023/04/03 01:03:38;;;;;;;3.70;3.10;;;;;;;;;;4942253;28;20419;-74
2023/04/03 01:06:05;;;;;;;4.25;2.80;;;;;;;;;;4942271;28;20057;-76
2023/04/03 01:08:32;;;;;;;4.97;3.13;;;;;;;;;;4962259;28;20426;-76
2023/04/03 01:10:59;;;;;;;3.60;2.80;;;;;;;;;;4961801;28;20057;-77
2023/04/03 01:13:29;;;;;;;4.22;2.90;;;;;;;;;;4962936;28;20140;-75
2023/04/03 01:15:56;;;;;;;4.50;2.80;;;;;;;;;;4981937;28;20050;-75
2023/04/03 01:18:23;;;;;;;4.13;3.13;;;;;;;;;;4965524;28;20096;-74
2023/04/03 01:20:55;;;;;;;4.53;3.53;;;;;;;;;;4964874;28;20056;-75
2023/04/03 01:23:30;;;;;;;3.58;2.78;;;;;;;;;;4987173;28;20510;-75
2023/04/03 01:25:57;;;;;;;4.32;2.95;;;;;;;;;;4963383;28;20565;-74
2023/04/03 01:28:32;;;;;;;3.25;2.70;;;;;;;;;;4947619;28;20054;-75
2023/04/03 01:31:15;;;;;;;5.70;3.90;;;;;;;;;;4946380;28;20108;-75
2023/04/03 01:33:42;;;;;;;4.15;2.95;;;;;;;;;;4977711;28;20137;-74
2023/04/03 01:36:10;;;;;;;6.03;3.30;;;;;;;;;;4955925;28;20050;-75
2023/04/03 01:38:37;;;;;;;3.92;2.63;;;;;;;;;;4946107;28;20144;-76
2023/04/03 01:41:04;;;;;;;3.83;2.85;;;;;;;;;;4945542;28;20541;-75
2023/04/03 01:43:30;;;;;;;3.97;2.70;;;;;;;;;;4946050;28;20050;-75
2023/04/03 01:45:57;;;;;;;4.20;3.08;;;;;;;;;;4961734;28;20054;-75
2023/04/03 01:48:24;;;;;;;4.15;2.63;;;;;;;;;;4962837;28;20057;-75
2023/04/03 01:50:51;;;;;;;4.70;3.40;;;;;;;;;;4964627;28;20138;-75
2023/04/03 01:53:17;;;;;;;3.50;2.53;;;;;;;;;;4980692;28;20052;-75
2023/04/03 01:55:45;;;;;;;3.33;2.80;;;;;;;;;;4964750;28;20054;-75
2023/04/03 01:58:11;;;;;;;5.05;2.65;;;;;;;;;;4965012;28;20054;-75
2023/04/03 02:00:38;;;;;;;5.75;3.13;;;;;;;;;;4980393;28;20060;-76
2023/04/03 02:03:05;;;;;;;5.38;2.70;;;;;;;;;;4964159;28;20049;-76
2023/04/03 02:05:32;;;;;;;3.92;2.72;;;;;;;;;;4964555;28;20054;-74
2023/04/03 02:07:59;;;;;;;4.85;2.65;;;;;;;;;;4980376;28;20046;-76
2023/04/03 02:10:25;;;;;;;4.35;3.08;;;;;;;;;;4980268;28;20418;-77
2023/04/03 02:12:52;;;;;;;4.22;2.65;;;;;;;;;;4980461;28;20525;-77
2023/04/03 02:15:19;;;;;;;3.10;2.80;;;;;;;;;;4964590;28;20057;-77
2023/04/03 02:17:46;;;;;;;3.60;3.30;;;;;;;;;;4963508;28;20688;-77
2023/04/03 02:20:12;;;;;;;5.40;3.08;;;;;;;;;;4976741;28;20057;-77
2023/04/03 02:22:39;;;;;;;4.93;2.85;;;;;;;;;;4960731;28;20049;-77
2023/04/03 02:25:06;;;;;;;3.08;2.72;;;;;;;;;;4961097;28;20070;-75
2023/04/03 02:27:33;;;;;;;3.42;2.65;;;;;;;;;;4961111;28;20050;-78
2023/04/03 02:30:00;;;;;;;2.85;2.50;;;;;;;;;;4962467;28;20046;-77
2023/04/03 02:32:27;;;;;;;3.03;2.35;;;;;;;;;;4960726;28;20065;-77
2023/04/03 02:34:53;;;;;;;3.95;2.40;;;;;;;;;;4945227;28;20061;-77
2023/04/03 02:37:21;;;;;;;2.90;2.60;;;;;;;;;;4944832;28;20054;-77
2023/04/03 02:39:47;;;;;;;4.43;2.95;;;;;;;;;;4960883;28;20054;-77
2023/04/03 02:42:14;;;;;;;2.30;2.08;;;;;;;;;;4944340;28;20051;-78
2023/04/03 02:44:41;;;;;;;3.00;2.38;;;;;;;;;;4954325;28;20047;-76
2023/04/03 02:47:08;;;;;;;3.13;2.50;;;;;;;;;;4961000;28;20060;-78
2023/04/03 02:49:34;;;;;;;3.05;2.38;;;;;;;;;;4944923;28;20053;-77
2023/04/03 02:52:01;;;;;;;3.30;2.30;;;;;;;;;;4944342;28;20054;-76
2023/04/03 02:54:30;;;;;;;3.55;2.60;;;;;;;;;;4960346;28;20046;-77
2023/04/03 02:56:58;;;;;;;2.13;1.88;;;;;;;;;;4963936;28;20060;-75
2023/04/03 02:59:24;;;;;;;4.60;2.55;;;;;;;;;;4963367;28;20577;-77
2023/04/03 03:01:51;;;;;;;2.13;1.90;;;;;;;;;;4979345;28;20171;-76
2023/04/03 03:04:18;;;;;;;2.55;2.25;;;;;;;;;;4963731;28;20045;-77
2023/04/03 03:06:46;;;;;;;3.33;2.20;;;;;;;;;;4964490;28;20058;-76
2023/04/03 03:09:13;;;;;;;4.20;2.10;;;;;;;;;;4964584;28;20450;-77
2023/04/03 03:11:40;;;;;;;5.47;2.55;;;;;;;;;;4963436;28;20053;-76
2023/04/03 03:14:07;;;;;;;3.92;2.28;;;;;;;;;;4963501;28;20054;-77
2023/04/03 03:16:34;;;;;;;4.47;3.05;;;;;;;;;;4964049;28;20046;-77
2023/04/03 03:19:01;;;;;;;3.08;2.13;;;;;;;;;;4963579;28;20050;-77
2023/04/03 03:21:27;;;;;;;4.20;2.05;;;;;;;;;;4963346;28;20064;-76
2023/04/03 03:23:54;;;;;;;3.55;2.35;;;;;;;;;;4975980;28;20052;-77
2023/04/03 03:26:21;;;;;;;3.55;2.10;;;;;;;;;;4944389;28;20057;-77
2023/04/03 03:28:48;;;;;;;5.90;2.63;;;;;;;;;;4944041;28;20421;-77
2023/04/03 03:31:15;;;;;;;3.33;2.03;;;;;;;;;;4944093;28;20419;-77
2023/04/03 03:33:41;;;;;;;2.40;2.00;;;;;;;;;;4943746;28;20101;-75
2023/04/03 03:36:08;;;;;;;4.60;2.40;;;;;;;;;;4959102;28;20077;-76
2023/04/03 03:38:35;;;;;;;2.92;1.98;;;;;;;;;;4951189;28;20050;-74
2023/04/03 03:41:02;;;;;;;3.17;2.25;;;;;;;;;;4959345;28;20058;-73
2023/04/03 03:43:29;;;;;;;3.67;2.20;;;;;;;;;;4959282;28;20050;-76
2023/04/03 03:45:55;;;;;;;6.25;2.88;;;;;;;;;;4959202;28;20054;-76
2023/04/03 03:48:22;;;;;;;3.58;2.55;;;;;;;;;;4959126;28;20050;-75
2023/04/03 03:50:50;;;;;;;3.97;2.28;;;;;;;;;;4959089;28;20062;-76
2023/04/03 03:53:16;;;;;;;4.32;2.55;;;;;;;;;;4958859;28;20053;-74
2023/04/03 03:55:43;;;;;;;3.40;2.58;;;;;;;;;;4959070;28;20057;-75
2023/04/03 03:58:10;;;;;;;3.55;1.85;;;;;;;;;;4959167;28;20058;-75
2023/04/03 04:00:37;;;;;;;6.22;2.60;;;;;;;;;;4958567;28;20249;-74
2023/04/03 04:03:03;;;;;;;3.20;2.35;;;;;;;;;;4974872;28;20141;-74
2023/04/03 04:05:30;;;;;;;3.20;2.80;;;;;;;;;;4959197;28;20057;-75
2023/04/03 04:07:57;;;;;;;3.20;2.60;;;;;;;;;;4959155;28;20076;-75
2023/04/03 04:10:24;;;;;;;5.60;2.50;;;;;;;;;;4990662;28;20047;-75
2023/04/03 04:12:51;;;;;;;3.63;2.50;;;;;;;;;;4967219;28;20026;-76
2023/04/03 04:15:18;;;;;;;3.72;2.05;;;;;;;;;;4963786;28;20142;-77
2023/04/03 04:17:45;;;;;;;3.47;2.38;;;;;;;;;;4975680;28;20047;-76
2023/04/03 04:20:12;;;;;;;2.35;2.08;;;;;;;;;;4959372;28;20086;-75
2023/04/03 04:22:39;;;;;;;6.90;2.97;;;;;;;;;;4959647;28;20053;-76
2023/04/03 04:25:06;;;;;;;3.58;2.15;;;;;;;;;;4959996;28;20422;-76
2023/04/03 04:27:32;;;;;;;2.42;2.10;;;;;;;;;;4977956;28;20054;-74
2023/04/03 04:29:59;;;;;;;2.70;2.35;;;;;;;;;;4982048;28;20050;-75
2023/04/03 04:32:26;;;;;;;4.07;2.90;;;;;;;;;;4996703;28;20065;-76
2023/04/03 04:34:53;;;;;;;2.10;1.90;;;;;;;;;;4948482;28;20510;-75
2023/04/03 04:37:19;;;;;;;4.22;2.30;;;;;;;;;;4958434;28;20494;-76
2023/04/03 04:39:46;;;;;;;2.42;1.88;;;;;;;;;;4958120;28;20054;-74
2023/04/03 04:42:13;;;;;;;4.40;2.35;;;;;;;;;;4974036;28;20658;-76
2023/04/03 04:44:43;;;;;;;2.47;2.17;;;;;;;;;;4960352;28;20856;-75
2023/04/03 04:47:10;;;;;;;3.40;2.58;;;;;;;;;;4959834;28;20081;-75
2023/04/03 04:49:36;;;;;;;4.40;3.65;;;;;;;;;;4960421;28;20057;-75
2023/04/03 04:52:03;;;;;;;4.40;3.20;;;;;;;;;;4944635;28;20133;-75
2023/04/03 04:54:30;;;;;;;3.85;2.80;;;;;;;;;;4960308;28;20046;-75
2023/04/03 04:56:57;;;;;;;2.95;2.28;;;;;;;;;;4975639;28;20076;-75
2023/04/03 04:59:24;;;;;;;3.70;3.08;;;;;;;;;;4953556;28;20056;-75
2023/04/03 05:01:51;;;;;;;2.97;2.75;;;;;;;;;;4977783;28;20530;-75
2023/04/03 05:04:17;;;;;;;3.92;3.22;;;;;;;;;;4978343;28;20050;-75
2023/04/03 05:06:44;;;;;;;4.82;2.83;;;;;;;;;;4978241;28;20057;-75
2023/04/03 05:09:12;;;;;;;3.85;2.72;;;;;;;;;;4977623;28;20050;-75
2023/04/03 05:11:38;;;;;;;4.70;3.05;;;;;;;;;;4969398;28;20058;-75
2023/04/03 05:14:06;;;;;;;4.25;2.67;;;;;;;;;;4977531;28;20046;-76
2023/04/03 05:16:33;;;;;;;4.75;2.50;;;;;;;;;;4977797;28;20081;-75
2023/04/03 05:19:00;;;;;;;6.97;3.45;;;;;;;;;;4977504;28;20050;-75
2023/04/03 05:21:31;;;;;;;5.97;2.40;;;;;;;;;;4977062;28;20069;-75
2023/04/03 05:24:02;;;;;;;6.45;2.45;;;;;;;;;;4978416;28;20046;-75
2023/04/03 05:26:32;;;;;;;3.15;2.10;;;;;;;;;;4959092;28;20396;-76
2023/04/03 05:29:02;;;;;;;3.75;2.30;;;;;;;;;;4958046;28;20054;-75
2023/04/03 05:31:29;;;;;;;2.95;2.10;;;;;;;;;;4957794;28;20520;-75
2023/04/03 05:33:56;;;;;;;4.30;2.40;;;;;;;;;;4957868;28;20138;-76
2023/04/03 05:36:23;;;;;;;2.97;2.13;;;;;;;;;;4957763;28;20491;-75
2023/04/03 05:38:50;;;;;;;2.72;2.05;;;;;;;;;;4960776;28;20065;-76
2023/04/03 05:41:18;;;;;;;4.35;2.33;;;;;;;;;;4977173;28;20501;-75
2023/04/03 05:43:44;;;;;;;6.47;2.40;;;;;;;;;;4977502;28;20052;-76
2023/04/03 05:46:13;;;;;;;3.17;2.38;;;;;;;;;;4961951;28;20056;-72
2023/04/03 05:48:39;;;;;;;3.33;2.35;;;;;;;;;;4977320;28;20085;-75
2023/04/03 05:51:09;;;;;;;2.35;1.92;;;;;;;;;;4958271;28;20054;-76
2023/04/03 05:53:37;;;;;;;5.00;2.15;;;;;;;;;;4958052;28;20050;-78
2023/04/03 05:56:04;;;;;;;2.30;1.80;;;;;;;;;;4958095;28;20061;-75
2023/04/03 05:58:30;;;;;;;2.25;1.95;;;;;;;;;;4957784;28;20050;-78
2023/04/03 06:00:57;;;;;;;3.05;2.30;;;;;;;;;;4992625;28;20525;-77
2023/04/03 06:03:25;;;;;;;3.58;2.50;;;;;;;;;;4964410;28;20050;-76
2023/04/03 06:05:52;;;;;;;5.15;2.50;;;;;;;;;;4945109;28;20058;-75
2023/04/03 06:08:19;;;;;;;3.78;2.13;;;;;;;;;;4944388;28;20065;-77
2023/04/03 06:10:46;;;;;;;2.67;1.85;;;;;;;;;;4976113;28;20058;-77
2023/04/03 06:13:13;;;;;;;4.45;2.42;;;;;;;;;;4943929;28;20050;-77
2023/04/03 06:15:40;;;;;;;5.35;2.22;;;;;;;;;;4944325;28;20050;-76
2023/04/03 06:18:07;;;;;;;2.65;2.33;;;;;;;;;;4955756;28;20111;-77
2023/04/03 06:20:33;;;;;;;3.35;2.13;;;;;;;;;;4943882;28;20051;-76
2023/04/03 06:23:00;;;;;;;4.78;2.20;;;;;;;;;;4943903;28;20058;-77
2023/04/03 06:25:27;;;;;;;2.85;2.08;;;;;;;;;;4944105;28;20507;-77
2023/04/03 06:27:57;;;;;;;2.95;1.90;;;;;;;;;;4944003;28;20057;-78
2023/04/03 06:30:24;;;;;;;3.92;2.30;;;;;;;;;;4975272;28;20046;-76
2023/04/03 06:32:51;;;;;;;4.00;2.22;;;;;;;;;;4943500;28;20058;-76
2023/04/03 06:35:18;;;;;;;7.15;3.03;;;;;;;;;;4944008;28;20058;-77
2023/04/03 06:37:45;;;;;;;2.85;2.38;;;;;;;;;;4943604;28;20050;-77
2023/04/03 06:40:26;;;;;;;3.25;2.13;;;;;;;;;;4943854;28;20073;-78
2023/04/03 06:42:53;;;;;;;5.15;2.40;;;;;;;;;;4944794;28;20058;-77
2023/04/03 06:45:20;;;;;;;3.58;2.13;;;;;;;;;;4972408;28;20137;-77
2023/04/03 06:47:46;;;;;;;5.07;2.42;;;;;;;;;;4978498;28;20050;-76
2023/04/03 06:50:14;;;;;;;4.88;2.83;;;;;;;;;;4963060;28;20092;-85
2023/04/03 06:52:41;;;;;;;2.75;2.20;;;;;;;;;;4965851;28;20525;-77
2023/04/03 06:55:09;;;;;;;2.50;1.98;;;;;;;;;;4967518;28;20046;-77
2023/04/03 06:57:36;;;;;;;5.07;2.22;;;;;;;;;;4976327;28;20054;-78
2023/04/03 07:00:04;;;;;;;3.65;2.47;;;;;;;;;;4943038;28;20521;-78
2023/04/03 07:02:31;;;;;;;3.58;2.00;;;;;;;;;;4947445;28;20057;-77
2023/04/03 07:04:58;;;;;;;4.13;2.33;;;;;;;;;;4944685;28;20429;-84
2023/04/03 07:07:25;;;;;;;3.15;2.25;;;;;;;;;;4945606;28;20050;-83
2023/04/03 07:09:52;;;;;;;3.28;2.20;;;;;;;;;;4955950;28;20117;-78
2023/04/03 07:12:18;;;;;;;3.58;2.22;;;;;;;;;;4977571;28;20306;-76
2023/04/03 07:14:45;;;;;;;4.15;2.33;;;;;;;;;;4970382;28;20088;-76
2023/04/03 07:17:12;;;;;;;2.67;2.00;;;;;;;;;;4992328;28;20104;-81
2023/04/03 07:19:39;;;;;;;2.58;2.13;;;;;;;;;;4977941;28;20254;-76
2023/04/03 07:22:06;;;;;;;4.78;2.58;;;;;;;;;;4964889;28;20050;-75
2023/04/03 07:24:33;;;;;;;5.53;2.45;;;;;;;;;;4976433;28;20499;-76
2023/04/03 07:27:01;;;;;;;4.32;1.90;;;;;;;;;;4959293;28;20046;-77
2023/04/03 07:29:29;;;;;;;5.43;2.10;;;;;;;;;;4970268;28;20061;-77
2023/04/03 07:31:56;;;;;;;5.63;2.60;;;;;;;;;;4966394;28;20055;-77
2023/04/03 07:34:23;;;;;;;4.85;2.80;;;;;;;;;;4958233;28;20043;-76
2023/04/03 07:36:50;;;;;;;4.55;3.13;;;;;;;;;;4959853;28;20057;-76
2023/04/03 07:39:17;;;;;;;3.70;2.00;;;;;;;;;;4960283;28;20050;-77
2023/04/03 07:41:45;;;;;;;4.57;2.15;;;;;;;;;;4966297;28;20060;-76
2023/04/03 07:44:12;;;;;;;5.00;2.10;;;;;;;;;;4960828;28;20050;-76
2023/04/03 07:46:40;;;;;;;6.25;2.10;;;;;;;;;;4959557;28;20097;-77
2023/04/03 07:49:07;;;;;;;3.83;2.20;;;;;;;;;;4966933;28;20585;-76
2023/04/03 07:51:34;;;;;;;3.30;2.20;;;;;;;;;;4976824;28;20073;-76
2023/04/03 07:54:01;;;;;;;6.60;2.28;;;;;;;;;;4959773;28;20494;-81
2023/04/03 07:56:28;;;;;;;3.45;2.20;;;;;;;;;;4957969;28;20073;-79
2023/04/03 07:58:55;;;;;;;3.35;2.35;;;;;;;;;;4968101;28;20073;-76
2023/04/03 08:01:22;;;;;;;4.18;2.63;;;;;;;;;;4960830;28;20058;-78
2023/04/03 08:03:49;;;;;;;6.57;2.28;;;;;;;;;;4964884;28;20121;-76
2023/04/03 08:06:16;;;;;;;3.95;2.20;;;;;;;;;;4985647;28;20650;-76
2023/04/03 08:08:49;;;;;;;;;;;;;;;;;;4962848;28;20074;-77
2023/04/03 08:11:16;;;;;;;4.47;2.30;;;;;;;;;;4975404;28;19931;-77
2023/04/03 08:13:43;;;;;;;4.82;2.63;;;;;;;;;;4961335;28;20538;-77
2023/04/03 08:16:12;;;;;;;3.83;2.40;;;;;;;;;;4967733;28;20058;-83
2023/04/03 08:18:39;;;;;;;3.30;2.10;;;;;;;;;;4963123;28;20057;-83
2023/04/03 08:21:09;;;;;;;1.85;1.67;;;;;;;;;;4978323;28;20136;-76
2023/04/03 08:23:37;;;;;;;3.20;2.05;;;;;;;;;;4971465;28;20113;-76
2023/04/03 08:26:14;;;;;;;2.40;1.88;;;;;;;;;;4958666;28;20465;-76
2023/04/03 08:28:41;;;;;;;3.53;2.08;;;;;;;;;;4943788;28;20081;-76
2023/04/03 08:31:13;;;;;;;5.07;2.35;;;;;;;;;;4950458;28;20054;-76
2023/04/03 08:33:40;;;;;;;6.80;3.10;;;;;;;;;;4978163;28;20054;-76
2023/04/03 08:36:14;;;;;;;5.03;2.10;;;;;;;;;;4982805;28;20044;-76
2023/04/03 08:38:41;;;;;;;5.32;2.70;;;;;;;;;;4976698;28;20466;-77
2023/04/03 08:41:35;;;;;;;5.28;2.20;;;;;;;;;;4943170;28;20050;-77
2023/04/03 08:44:22;;;;;;;;;;;;;;;;;;4961091;28;20137;-76
2023/04/03 08:47:13;;;;;;;5.00;2.45;;;;;;;;;;4991158;28;19928;-77
2023/04/03 08:49:50;;;;;;;4.65;2.20;;;;;;;;;;4975231;28;20054;-77
2023/04/03 08:52:21;;;;;;;4.60;2.10;;;;;;;;;;4960327;28;20058;-77
2023/04/03 08:54:56;;;;;;;4.38;2.28;;;;;;;;;;4959637;28;20046;-76
2023/04/03 08:57:33;;;;;;;3.55;1.90;;;;;;;;;;4959473;28;20438;-77
2023/04/03 09:00:07;;;;;;;2.03;1.67;;;;;;;;;;4959588;28;20049;-77
2023/04/03 09:02:40;;;;;;;5.03;2.10;;;;;;;;;;4959399;28;20050;-77
2023/04/03 09:05:17;;;;;;;;;;;;;;;;;;4960138;28;20469;-77
2023/04/03 09:07:50;;;;;;;2.47;1.85;;;;;;;;;;4974574;28;19922;-77
2023/04/03 09:10:23;;;;;;;3.92;1.75;;;;;;;;;;4943782;28;20057;-76
2023/04/03 09:12:57;;;;;;;4.32;1.90;;;;;;;;;;4943483;28;20065;-77
2023/04/03 09:15:25;;;;;;;3.10;2.08;;;;;;;;;;4943448;28;20053;-77
2023/04/03 09:18:28;;;;;;;3.53;1.60;;;;;;;;;;4947979;28;20473;-77
2023/04/03 09:21:02;;;;;;;4.55;2.17;;;;;;;;;;4949870;28;20050;-76
2023/04/03 09:23:32;;;;;;;4.38;1.70;;;;;;;;;;4990687;28;20054;-76
2023/04/03 09:26:08;;;;;;;3.28;1.83;;;;;;;;;;4959363;28;20082;-77
2023/04/03 09:28:38;;;;;;;7.78;2.35;;;;;;;;;;4959704;28;20502;-77
2023/04/03 09:31:36;;;;;;;1.98;1.88;;;;;;;;;;4961661;28;20100;-77
2023/04/03 09:34:22;;;;;;;2.65;1.77;;;;;;;;;;4959842;28;20081;-77
2023/04/03 09:36:52;;;;;;;4.20;2.00;;;;;;;;;;4962536;28;20051;-77
2023/04/03 09:39:24;;;;;;;2.90;1.60;;;;;;;;;;4951293;28;20054;-76
2023/04/03 09:41:59;;;;;;;3.63;1.80;;;;;;;;;;4952539;28;20043;-76
2023/04/03 09:44:29;;;;;;;3.63;1.70;;;;;;;;;;4949798;28;20054;-77
2023/04/03 09:46:56;;;;;;;2.83;1.80;;;;;;;;;;4978136;28;20716;-77
2023/04/03 09:49:23;;;;;;;4.28;2.00;;;;;;;;;;4960862;28;20108;-77
2023/04/03 09:51:50;;;;;;;4.88;1.80;;;;;;;;;;4981296;28;20046;-77
2023/04/03 09:54:38;;;;;;;4.72;1.70;;;;;;;;;;4981287;28;20057;-76
2023/04/03 09:57:11;;;;;;;3.03;1.67;;;;;;;;;;4997497;28;20093;-77
2023/04/03 10:00:00;;;;;;;2.30;1.30;;;;;;;;;;4981910;28;20061;-77
2023/04/03 10:02:38;;;;;;;2.53;1.80;;;;;;;;;;4981321;28;20054;-75
2023/04/03 10:05:25;;;;;;;4.00;1.55;;;;;;;;;;4965368;28;20093;-77
2023/04/03 10:07:52;;;;;;;4.70;1.45;;;;;;;;;;4984095;28;20096;-75
2023/04/03 10:10:27;;;;;;;4.45;1.90;;;;;;;;;;4969554;28;20065;-83
2023/04/03 10:13:09;;;;;;;2.20;1.60;;;;;;;;;;4967100;28;20045;-77
2023/04/03 10:15:42;;;;;;;3.28;1.50;;;;;;;;;;4962212;28;20113;-77
2023/04/03 10:18:33;;;;;;;2.28;1.63;;;;;;;;;;4965306;28;20076;-77
2023/04/03 10:21:10;;;;;;;2.67;1.70;;;;;;;;;;5008668;28;20041;-77
2023/04/03 10:23:54;;;;;;;4.47;1.80;;;;;;;;;;4957846;28;20057;-77
2023/04/03 10:26:42;;;;;;;2.65;1.65;;;;;;;;;;4977465;28;20053;-78
2023/04/03 10:29:50;;;;;;;1.85;1.40;;;;;;;;;;4986668;28;20052;-77
2023/04/03 10:33:02;;;;;;;3.17;1.20;;;;;;;;;;4938500;28;20190;-77
2023/04/03 10:35:47;;;;;;;3.20;1.35;;;;;;;;;;4978650;28;20041;-77
2023/04/03 10:38:38;;;;;;;3.25;1.60;;;;;;;;;;4984581;28;20050;-77
2023/04/03 10:41:22;;;;;;;2.90;1.30;;;;;;;;;;4981252;28;20071;-77
2023/04/03 10:44:18;;;;;;;;;;;;;;;;;;4978190;28;20049;-77
2023/04/03 10:47:00;;;;;;;2.25;1.48;;;;;;;;;;4971712;28;19922;-77
2023/04/03 10:49:42;;;;;;;1.38;1.20;;;;;;;;;;4975192;28;20054;-76
2023/04/03 10:52:45;;;;;;;2.78;1.27;;;;;;;;;;4988092;28;20060;-77
2023/04/03 10:55:53;;;;;;;4.55;1.70;;;;;;;;;;4982652;28;20050;-77
2023/04/03 10:58:45;;;;;;;3.60;1.42;;;;;;;;;;4896980;29;20063;-77
2023/04/03 11:01:20;;;;;;;3.70;1.27;;;;;;;;;;4921445;29;20048;-77
2023/04/03 11:03:52;;;;;;;1.35;1.08;;;;;;;;;;4931925;28;20066;-76
2023/04/03 11:06:20;;;;;;;1.70;1.17;;;;;;;;;;4960615;28;20043;-76
2023/04/03 11:08:56;;;;;;;3.55;1.58;;;;;;;;;;4959465;28;20108;-77
2023/04/03 11:11:29;;;;;;;1.67;1.10;;;;;;;;;;4987367;28;20052;-77
2023/04/03 11:14:00;;;;;;;3.90;1.63;;;;;;;;;;4955697;28;20057;-79
2023/04/03 11:16:33;;;;;;;3.17;1.70;;;;;;;;;;4961378;28;20054;-79
2023/04/03 11:19:23;;;;;;;1.20;1.10;;;;;;;;;;4970129;28;20053;-80
2023/04/03 11:22:10;;;;;;;3.58;1.25;;;;;;;;;;4979956;28;20050;-80
2023/04/03 11:24:39;;;;;;;2.08;1.10;;;;;;;;;;4978359;28;20050;-79
2023/04/03 11:27:12;;;;;;;2.47;1.23;;;;;;;;;;4975020;28;20041;-78
2023/04/03 11:29:39;;;;;;;3.22;1.48;;;;;;;;;;4978801;28;20086;-79
2023/04/03 11:32:24;;;;;;;4.20;1.60;;;;;;;;;;4968100;28;20050;-79
2023/04/03 11:34:53;;;;;;;4.15;1.52;;;;;;;;;;5005555;28;20128;-80
2023/04/03 11:37:32;;;;;;;3.10;1.20;;;;;;;;;;4962788;28;20128;-80
2023/04/03 11:40:08;;;;;;;3.15;1.55;;;;;;;;;;4967257;28;20049;-80
2023/04/03 11:42:41;;;;;;;2.20;1.42;;;;;;;;;;4991977;28;20153;-80
2023/04/03 11:45:26;;;;;;;4.65;1.45;;;;;;;;;;4965757;28;20124;-79
2023/04/03 11:48:26;;;;;;;2.30;1.30;;;;;;;;;;4977502;28;20090;-79
2023/04/03 11:50:55;;;;;;;2.65;1.30;;;;;;;;;;4974167;28;20054;-79
2023/04/03 11:53:38;;;;;;;2.03;1.65;;;;;;;;;;4979689;28;20054;-75
2023/04/03 11:56:26;;;;;;;4.15;1.65;;;;;;;;;;4974419;28;20042;-76
2023/04/03 11:59:11;;;;;;;3.80;1.30;;;;;;;;;;4995639;28;20050;-80
2023/04/03 12:01:51;;;;;;;2.25;1.20;;;;;;;;;;4996371;28;20049;-80
2023/04/03 12:04:20;;;;;;;2.42;1.30;;;;;;;;;;4977900;28;20058;-77
2023/04/03 12:06:48;;;;;;;4.35;1.85;;;;;;;;;;4971685;28;20425;-78
2023/04/03 12:09:34;;;;;;;3.17;1.52;;;;;;;;;;5000259;28;20518;-78
2023/04/03 12:12:21;;;;;;;4.57;1.63;;;;;;;;;;4981123;28;20048;-81
2023/04/03 12:14:47;;;;;;;4.00;1.73;;;;;;;;;;4983160;28;20050;-79
2023/04/03 12:17:23;;;;;;;1.98;1.30;;;;;;;;;;4994825;28;20121;-78
2023/04/03 12:19:50;;;;;;;4.20;1.40;;;;;;;;;;4970876;28;20049;-78
2023/04/03 12:22:20;;;;;;;1.73;1.20;;;;;;;;;;4961776;28;20395;-79
2023/04/03 12:24:49;;;;;;;5.55;1.45;;;;;;;;;;4967273;28;20054;-78
2023/04/03 12:27:28;;;;;;;2.33;1.50;;;;;;;;;;4972842;28;20053;-80
2023/04/03 12:30:05;;;;;;;3.33;1.10;;;;;;;;;;4984366;28;20069;-78
2023/04/03 12:32:36;;;;;;;5.50;1.40;;;;;;;;;;5002637;28;20050;-78
2023/04/03 12:35:31;;;;;;;2.67;1.60;;;;;;;;;;4971544;28;20497;-79
2023/04/03 12:38:16;;;;;;;2.88;1.48;;;;;;;;;;4970183;28;20495;-78
2023/04/03 12:40:46;;;;;;;2.05;1.10;;;;;;;;;;4992682;28;20056;-76
2023/04/03 12:43:35;;;;;;;2.72;1.40;;;;;;;;;;4993341;28;20054;-76
2023/04/03 12:46:08;;;;;;;3.65;1.25;;;;;;;;;;4980919;28;20108;-76
2023/04/03 12:48:55;;;;;;;3.35;1.73;;;;;;;;;;4996663;28;20077;-76
2023/04/03 12:51:35;;;;;;;2.38;1.40;;;;;;;;;;4957797;28;20065;-74
2023/04/03 12:54:12;;;;;;;1.73;1.55;;;;;;;;;;4969902;28;20049;-77
2023/04/03 12:56:40;;;;;;;4.80;1.60;;;;;;;;;;4960067;28;20072;-76
2023/04/03 12:59:26;;;;;;;3.22;1.73;;;;;;;;;;4964864;28;20046;-79
2023/04/03 13:02:00;;;;;;;3.08;1.38;;;;;;;;;;4961079;28;20503;-76
2023/04/03 13:04:28;;;;;;;3.03;1.38;;;;;;;;;;4965338;28;20135;-76
2023/04/03 13:06:55;;;;;;;4.70;1.50;;;;;;;;;;4976634;28;20045;-76
2023/04/03 13:09:23;;;;;;;3.22;1.30;;;;;;;;;;4965640;28;20137;-76
2023/04/03 13:11:52;;;;;;;1.98;1.10;;;;;;;;;;4976027;28;20418;-77
2023/04/03 13:14:24;;;;;;;2.33;1.30;;;;;;;;;;4960978;28;20144;-78
2023/04/03 13:16:58;;;;;;;2.78;1.50;;;;;;;;;;4964606;28;20050;-77
2023/04/03 13:19:27;;;;;;;2.53;1.40;;;;;;;;;;4961610;28;20137;-77
2023/04/03 13:22:04;;;;;;;3.47;1.20;;;;;;;;;;4967509;28;20137;-77
2023/04/03 13:24:32;;;;;;;3.47;1.50;;;;;;;;;;4951384;28;20082;-77
2023/04/03 13:26:59;;;;;;;1.98;1.35;;;;;;;;;;4958764;28;20049;-78
2023/04/03 13:29:34;;;;;;;2.13;1.38;;;;;;;;;;4975483;28;20421;-78
2023/04/03 13:32:01;;;;;;;5.18;1.75;;;;;;;;;;4959750;28;20052;-77
2023/04/03 13:34:40;;;;;;;2.58;1.58;;;;;;;;;;4954072;28;20046;-82
2023/04/03 13:37:19;;;;;;;2.47;1.20;;;;;;;;;;4956871;28;20042;-78
2023/04/03 13:40:08;;;;;;;5.25;1.33;;;;;;;;;;4962282;28;20061;-75
2023/04/03 13:42:37;;;;;;;3.78;1.38;;;;;;;;;;4989010;28;20049;-79
2023/04/03 13:45:19;;;;;;;2.22;1.20;;;;;;;;;;4967333;28;20072;-81
2023/04/03 13:47:48;;;;;;;4.18;1.60;;;;;;;;;;4993486;28;20046;-80
2023/04/03 13:50:19;;;;;;;3.60;1.50;;;;;;;;;;4964004;28;20054;-81
2023/04/03 13:53:08;;;;;;;4.38;1.90;;;;;;;;;;4981649;28;20050;-79
2023/04/03 13:55:36;;;;;;;2.65;1.67;;;;;;;;;;4969689;28;20438;-82
2023/04/03 13:58:26;;;;;;;2.97;1.70;;;;;;;;;;4983674;28;20141;-82
2023/04/03 14:01:00;;;;;;;3.83;1.30;;;;;;;;;;4971185;28;20053;-79
2023/04/03 14:03:34;;;;;;;3.75;1.80;;;;;;;;;;4979770;28;20049;-79
2023/04/03 14:06:01;;;;;;;4.07;1.70;;;;;;;;;;4962673;28;20529;-80
2023/04/03 14:08:28;;;;;;;3.33;1.50;;;;;;;;;;4975409;28;20057;-79
2023/04/03 14:11:34;;;;;;;2.67;1.23;;;;;;;;;;4969303;28;20447;-79
2023/04/03 14:14:04;;;;;;;2.08;1.38;;;;;;;;;;4988700;28;20046;-80
2023/04/03 14:16:33;;;;;;;2.95;1.35;;;;;;;;;;4972619;28;20073;-81
2023/04/03 14:19:00;;;;;;;1.77;1.33;;;;;;;;;;4962405;28;20069;-75
2023/04/03 14:21:27;;;;;;;2.88;1.45;;;;;;;;;;4952340;28;20045;-78
2023/04/03 14:23:54;;;;;;;2.88;1.20;;;;;;;;;;4980494;28;20084;-79
2023/04/03 14:26:23;;;;;;;3.03;1.60;;;;;;;;;;4986100;28;20133;-79
2023/04/03 14:28:53;;;;;;;2.15;1.65;;;;;;;;;;4968855;28;20057;-79
2023/04/03 14:31:23;;;;;;;3.85;1.52;;;;;;;;;;4975771;28;20141;-80
2023/04/03 14:33:50;;;;;;;3.40;1.20;;;;;;;;;;4972174;28;20100;-80
2023/04/03 14:36:22;;;;;;;3.33;1.48;;;;;;;;;;4972199;28;20046;-80
2023/04/03 14:38:49;;;;;;;3.47;1.33;;;;;;;;;;4977949;28;20035;-77
2023/04/03 14:41:20;;;;;;;2.15;1.40;;;;;;;;;;4995013;28;20034;-78
2023/04/03 14:43:47;;;;;;;2.85;1.85;;;;;;;;;;4984342;28;20096;-79
2023/04/03 14:46:19;;;;;;;1.85;1.45;;;;;;;;;;5000048;28;20106;-80
2023/04/03 14:48:46;;;;;;;2.35;1.35;;;;;;;;;;4975238;28;20049;-80
2023/04/03 14:51:14;;;;;;;2.85;1.50;;;;;;;;;;5008319;28;20073;-74
2023/04/03 14:53:42;;;;;;;1.77;1.00;;;;;;;;;;4979568;28;20050;-75
2023/04/03 14:56:29;;;;;;;4.45;2.15;;;;;;;;;;4978007;28;20049;-78
2023/04/03 14:59:00;;;;;;;2.92;1.85;;;;;;;;;;5003204;28;20064;-78
2023/04/03 15:01:30;;;;;;;1.70;1.25;;;;;;;;;;4966798;28;20573;-76
2023/04/03 15:03:56;;;;;;;3.03;1.00;;;;;;;;;;4980394;28;20041;-76
2023/04/03 15:06:24;;;;;;;1.75;1.27;;;;;;;;;;4982813;28;20046;-77
2023/04/03 15:08:51;;;;;;;2.83;1.40;;;;;;;;;;4990371;28;20117;-77